Terminal Aerodrome Forecast
Issued by NWS Shreveport, LA

Home | Current Version | Previous Version | Text Only | Print | Product List | Glossary On
Versions: 1 2 3 4 5 6 7 8 9 10 11 12
000
FTUS44 KSHV 291737
TAFELD
TAF
KELD 291737Z 2918/3018 VRB05KT P6SM FEW045 BKN180 BKN250
     FM300000 00000KT P6SM BKN150
     FM301200 VRB03KT P6SM SCT100 BKN150
     FM301500 21005KT P6SM SCT100 BKN150=

USA.gov is the U.S. government's official web portal to all federal, state and local government web resources and services.